sensor_id;sensor_type;location;lat;lon;timestamp;P1;durP1;ratioP1;P2;durP2;ratioP2
11283;SDS011;5698;47.332;11.180;2023-07-31T00:01:56;1.97;;;1.77;;
11283;SDS011;5698;47.332;11.180;2023-07-31T00:04:23;3.27;;;1.90;;
11283;SDS011;5698;47.332;11.180;2023-07-31T00:06:50;3.30;;;2.17;;
11283;SDS011;5698;47.332;11.180;2023-07-31T00:09:19;2.30;;;2.00;;
11283;SDS011;5698;47.332;11.180;2023-07-31T00:11:45;2.10;;;1.90;;
11283;SDS011;5698;47.332;11.180;2023-07-31T00:14:12;2.40;;;1.93;;
11283;SDS011;5698;47.332;11.180;2023-07-31T00:16:39;3.10;;;2.50;;
11283;SDS011;5698;47.332;11.180;2023-07-31T00:19:06;2.20;;;1.83;;
11283;SDS011;5698;47.332;11.180;2023-07-31T00:21:33;2.50;;;2.30;;
11283;SDS011;5698;47.332;11.180;2023-07-31T00:24:00;4.80;;;2.10;;
11283;SDS011;5698;47.332;11.180;2023-07-31T00:26:28;2.03;;;1.90;;
11283;SDS011;5698;47.332;11.180;2023-07-31T00:28:55;2.10;;;1.90;;
11283;SDS011;5698;47.332;11.180;2023-07-31T00:31:22;3.30;;;2.47;;
11283;SDS011;5698;47.332;11.180;2023-07-31T00:33:49;2.47;;;2.20;;
11283;SDS011;5698;47.332;11.180;2023-07-31T00:36:16;3.77;;;2.43;;
11283;SDS011;5698;47.332;11.180;2023-07-31T00:38:44;4.23;;;1.70;;
11283;SDS011;5698;47.332;11.180;2023-07-31T00:41:11;2.30;;;2.00;;
11283;SDS011;5698;47.332;11.180;2023-07-31T00:43:39;5.80;;;2.33;;
11283;SDS011;5698;47.332;11.180;2023-07-31T00:46:06;2.50;;;2.30;;
11283;SDS011;5698;47.332;11.180;2023-07-31T00:48:33;1.93;;;1.80;;
11283;SDS011;5698;47.332;11.180;2023-07-31T00:51:01;2.20;;;2.00;;
11283;SDS011;5698;47.332;11.180;2023-07-31T00:53:28;2.00;;;1.83;;
11283;SDS011;5698;47.332;11.180;2023-07-31T00:55:55;3.03;;;2.10;;
11283;SDS011;5698;47.332;11.180;2023-07-31T00:58:22;3.33;;;2.10;;
11283;SDS011;5698;47.332;11.180;2023-07-31T01:00:51;2.77;;;2.43;;
11283;SDS011;5698;47.332;11.180;2023-07-31T01:03:18;2.27;;;2.00;;
11283;SDS011;5698;47.332;11.180;2023-07-31T01:05:47;2.30;;;2.10;;
11283;SDS011;5698;47.332;11.180;2023-07-31T01:08:24;2.87;;;2.20;;
11283;SDS011;5698;47.332;11.180;2023-07-31T01:10:56;6.57;;;3.63;;
11283;SDS011;5698;47.332;11.180;2023-07-31T01:13:33;3.43;;;2.67;;
11283;SDS011;5698;47.332;11.180;2023-07-31T01:16:02;2.77;;;2.20;;
11283;SDS011;5698;47.332;11.180;2023-07-31T01:18:29;2.70;;;2.50;;
11283;SDS011;5698;47.332;11.180;2023-07-31T01:20:58;2.67;;;2.47;;
11283;SDS011;5698;47.332;11.180;2023-07-31T01:23:41;2.93;;;2.63;;
11283;SDS011;5698;47.332;11.180;2023-07-31T01:26:36;3.20;;;2.53;;
11283;SDS011;5698;47.332;11.180;2023-07-31T01:29:06;4.13;;;2.30;;
11283;SDS011;5698;47.332;11.180;2023-07-31T01:31:39;3.30;;;2.70;;
11283;SDS011;5698;47.332;11.180;2023-07-31T01:34:07;2.87;;;2.30;;
11283;SDS011;5698;47.332;11.180;2023-07-31T01:36:36;3.23;;;2.40;;
11283;SDS011;5698;47.332;11.180;2023-07-31T01:39:03;2.53;;;2.00;;
11283;SDS011;5698;47.332;11.180;2023-07-31T01:41:30;2.80;;;2.37;;
11283;SDS011;5698;47.332;11.180;2023-07-31T01:43:58;3.00;;;2.57;;
11283;SDS011;5698;47.332;11.180;2023-07-31T01:46:25;4.13;;;2.40;;
11283;SDS011;5698;47.332;11.180;2023-07-31T01:48:52;3.23;;;2.10;;
11283;SDS011;5698;47.332;11.180;2023-07-31T01:51:19;3.60;;;2.67;;
11283;SDS011;5698;47.332;11.180;2023-07-31T01:53:46;2.57;;;2.33;;
11283;SDS011;5698;47.332;11.180;2023-07-31T01:56:13;3.20;;;2.33;;
11283;SDS011;5698;47.332;11.180;2023-07-31T01:58:40;5.20;;;3.00;;
11283;SDS011;5698;47.332;11.180;2023-07-31T02:01:08;2.57;;;2.37;;
11283;SDS011;5698;47.332;11.180;2023-07-31T02:03:35;3.23;;;2.53;;
11283;SDS011;5698;47.332;11.180;2023-07-31T02:06:02;2.50;;;2.30;;
11283;SDS011;5698;47.332;11.180;2023-07-31T02:08:29;3.13;;;2.83;;
11283;SDS011;5698;47.332;11.180;2023-07-31T02:10:56;2.70;;;2.47;;
11283;SDS011;5698;47.332;11.180;2023-07-31T02:13:23;3.33;;;2.60;;
11283;SDS011;5698;47.332;11.180;2023-07-31T02:15:50;3.63;;;2.47;;
11283;SDS011;5698;47.332;11.180;2023-07-31T02:18:18;4.93;;;2.33;;
11283;SDS011;5698;47.332;11.180;2023-07-31T02:20:48;4.33;;;2.70;;
11283;SDS011;5698;47.332;11.180;2023-07-31T02:23:16;2.80;;;2.37;;
11283;SDS011;5698;47.332;11.180;2023-07-31T02:25:43;5.00;;;3.00;;
11283;SDS011;5698;47.332;11.180;2023-07-31T02:28:10;3.17;;;2.47;;
11283;SDS011;5698;47.332;11.180;2023-07-31T02:30:37;3.70;;;2.93;;
11283;SDS011;5698;47.332;11.180;2023-07-31T02:33:04;3.17;;;2.60;;
11283;SDS011;5698;47.332;11.180;2023-07-31T02:35:33;4.13;;;2.87;;
11283;SDS011;5698;47.332;11.180;2023-07-31T02:38:00;3.43;;;3.13;;
11283;SDS011;5698;47.332;11.180;2023-07-31T02:40:27;3.20;;;2.87;;
11283;SDS011;5698;47.332;11.180;2023-07-31T02:42:54;3.83;;;2.57;;
11283;SDS011;5698;47.332;11.180;2023-07-31T02:45:21;2.33;;;2.13;;
11283;SDS011;5698;47.332;11.180;2023-07-31T02:47:48;2.87;;;2.23;;
11283;SDS011;5698;47.332;11.180;2023-07-31T02:50:14;2.70;;;2.50;;
11283;SDS011;5698;47.332;11.180;2023-07-31T02:52:43;3.17;;;2.50;;
11283;SDS011;5698;47.332;11.180;2023-07-31T02:55:10;3.50;;;2.17;;
11283;SDS011;5698;47.332;11.180;2023-07-31T02:57:37;4.93;;;2.30;;
11283;SDS011;5698;47.332;11.180;2023-07-31T03:00:04;2.60;;;2.23;;
11283;SDS011;5698;47.332;11.180;2023-07-31T03:02:32;2.40;;;2.20;;
11283;SDS011;5698;47.332;11.180;2023-07-31T03:04:59;3.00;;;2.27;;
11283;SDS011;5698;47.332;11.180;2023-07-31T03:07:26;2.50;;;2.30;;
11283;SDS011;5698;47.332;11.180;2023-07-31T03:09:55;3.60;;;2.40;;
11283;SDS011;5698;47.332;11.180;2023-07-31T03:12:22;3.07;;;2.40;;
11283;SDS011;5698;47.332;11.180;2023-07-31T03:14:49;2.87;;;2.30;;
11283;SDS011;5698;47.332;11.180;2023-07-31T03:17:16;2.83;;;2.53;;
11283;SDS011;5698;47.332;11.180;2023-07-31T03:19:43;3.30;;;2.47;;
11283;SDS011;5698;47.332;11.180;2023-07-31T03:22:10;3.33;;;2.77;;
11283;SDS011;5698;47.332;11.180;2023-07-31T03:24:37;3.60;;;2.50;;
11283;SDS011;5698;47.332;11.180;2023-07-31T03:27:06;3.07;;;2.50;;
11283;SDS011;5698;47.332;11.180;2023-07-31T03:29:33;2.77;;;2.40;;
11283;SDS011;5698;47.332;11.180;2023-07-31T03:32:00;3.13;;;2.23;;
11283;SDS011;5698;47.332;11.180;2023-07-31T03:34:27;2.33;;;1.90;;
11283;SDS011;5698;47.332;11.180;2023-07-31T03:36:54;2.53;;;2.30;;
11283;SDS011;5698;47.332;11.180;2023-07-31T03:39:21;3.67;;;2.50;;
11283;SDS011;5698;47.332;11.180;2023-07-31T03:41:47;3.43;;;2.50;;
11283;SDS011;5698;47.332;11.180;2023-07-31T03:44:16;3.20;;;2.23;;
11283;SDS011;5698;47.332;11.180;2023-07-31T03:46:43;2.93;;;2.10;;
11283;SDS011;5698;47.332;11.180;2023-07-31T03:49:10;2.70;;;2.50;;
11283;SDS011;5698;47.332;11.180;2023-07-31T03:51:37;3.73;;;2.30;;
11283;SDS011;5698;47.332;11.180;2023-07-31T03:54:04;3.53;;;2.30;;
11283;SDS011;5698;47.332;11.180;2023-07-31T03:56:32;3.00;;;2.70;;
11283;SDS011;5698;47.332;11.180;2023-07-31T03:58:59;5.23;;;2.80;;
11283;SDS011;5698;47.332;11.180;2023-07-31T04:01:28;3.37;;;2.80;;
11283;SDS011;5698;47.332;11.180;2023-07-31T04:03:54;3.37;;;2.57;;
11283;SDS011;5698;47.332;11.180;2023-07-31T04:06:21;3.50;;;2.63;;
11283;SDS011;5698;47.332;11.180;2023-07-31T04:08:48;2.70;;;2.50;;
11283;SDS011;5698;47.332;11.180;2023-07-31T04:11:15;2.70;;;2.50;;
11283;SDS011;5698;47.332;11.180;2023-07-31T04:13:42;3.00;;;2.27;;
11283;SDS011;5698;47.332;11.180;2023-07-31T04:16:09;3.30;;;2.87;;
11283;SDS011;5698;47.332;11.180;2023-07-31T04:18:38;3.07;;;2.77;;
11283;SDS011;5698;47.332;11.180;2023-07-31T04:21:05;3.33;;;2.83;;
11283;SDS011;5698;47.332;11.180;2023-07-31T04:23:32;2.73;;;2.53;;
11283;SDS011;5698;47.332;11.180;2023-07-31T04:25:59;3.40;;;3.10;;
11283;SDS011;5698;47.332;11.180;2023-07-31T04:28:25;3.67;;;2.50;;
11283;SDS011;5698;47.332;11.180;2023-07-31T04:30:52;3.27;;;2.97;;
11283;SDS011;5698;47.332;11.180;2023-07-31T04:33:19;3.30;;;3.00;;
11283;SDS011;5698;47.332;11.180;2023-07-31T04:35:51;3.10;;;2.90;;
11283;SDS011;5698;47.332;11.180;2023-07-31T04:38:19;6.20;;;3.00;;
11283;SDS011;5698;47.332;11.180;2023-07-31T04:40:47;3.70;;;2.70;;
11283;SDS011;5698;47.332;11.180;2023-07-31T04:43:14;4.23;;;2.63;;
11283;SDS011;5698;47.332;11.180;2023-07-31T04:45:42;2.87;;;2.67;;
11283;SDS011;5698;47.332;11.180;2023-07-31T04:48:12;2.70;;;2.50;;
11283;SDS011;5698;47.332;11.180;2023-07-31T04:50:39;2.47;;;2.27;;
11283;SDS011;5698;47.332;11.180;2023-07-31T04:53:07;3.30;;;2.40;;
11283;SDS011;5698;47.332;11.180;2023-07-31T04:55:34;2.50;;;2.27;;
11283;SDS011;5698;47.332;11.180;2023-07-31T04:58:01;2.10;;;1.93;;
11283;SDS011;5698;47.332;11.180;2023-07-31T05:00:28;3.10;;;2.50;;
11283;SDS011;5698;47.332;11.180;2023-07-31T05:02:55;3.10;;;2.90;;
11283;SDS011;5698;47.332;11.180;2023-07-31T05:05:22;2.97;;;2.70;;
11283;SDS011;5698;47.332;11.180;2023-07-31T05:07:49;3.63;;;3.33;;
11283;SDS011;5698;47.332;11.180;2023-07-31T05:10:17;3.40;;;3.10;;
11283;SDS011;5698;47.332;11.180;2023-07-31T05:12:44;4.13;;;3.30;;
11283;SDS011;5698;47.332;11.180;2023-07-31T05:15:11;3.67;;;3.30;;
11283;SDS011;5698;47.332;11.180;2023-07-31T05:17:38;3.77;;;3.37;;
11283;SDS011;5698;47.332;11.180;2023-07-31T05:20:06;5.87;;;3.90;;
11283;SDS011;5698;47.332;11.180;2023-07-31T05:22:34;4.27;;;3.87;;
11283;SDS011;5698;47.332;11.180;2023-07-31T05:25:01;4.43;;;3.87;;
11283;SDS011;5698;47.332;11.180;2023-07-31T05:27:29;5.50;;;4.07;;
11283;SDS011;5698;47.332;11.180;2023-07-31T05:29:57;5.13;;;3.87;;
11283;SDS011;5698;47.332;11.180;2023-07-31T05:32:24;4.60;;;4.10;;
11283;SDS011;5698;47.332;11.180;2023-07-31T05:34:52;5.50;;;4.47;;
11283;SDS011;5698;47.332;11.180;2023-07-31T05:37:19;7.20;;;4.27;;
11283;SDS011;5698;47.332;11.180;2023-07-31T05:39:46;6.27;;;4.30;;
11283;SDS011;5698;47.332;11.180;2023-07-31T05:42:13;5.07;;;4.53;;
11283;SDS011;5698;47.332;11.180;2023-07-31T05:44:41;5.27;;;3.87;;
11283;SDS011;5698;47.332;11.180;2023-07-31T05:47:08;4.27;;;3.87;;
11283;SDS011;5698;47.332;11.180;2023-07-31T05:49:35;5.67;;;4.53;;
11283;SDS011;5698;47.332;11.180;2023-07-31T05:52:03;4.97;;;4.10;;
11283;SDS011;5698;47.332;11.180;2023-07-31T05:54:31;4.83;;;3.77;;
11283;SDS011;5698;47.332;11.180;2023-07-31T05:56:58;4.27;;;3.77;;
11283;SDS011;5698;47.332;11.180;2023-07-31T05:59:25;4.07;;;3.67;;
11283;SDS011;5698;47.332;11.180;2023-07-31T06:01:54;5.47;;;4.13;;
11283;SDS011;5698;47.332;11.180;2023-07-31T06:04:21;4.50;;;4.10;;
11283;SDS011;5698;47.332;11.180;2023-07-31T06:06:50;3.70;;;3.40;;
11283;SDS011;5698;47.332;11.180;2023-07-31T06:09:17;4.70;;;3.60;;
11283;SDS011;5698;47.332;11.180;2023-07-31T06:11:45;4.87;;;3.90;;
11283;SDS011;5698;47.332;11.180;2023-07-31T06:14:12;3.67;;;3.37;;
11283;SDS011;5698;47.332;11.180;2023-07-31T06:16:39;4.50;;;3.20;;
11283;SDS011;5698;47.332;11.180;2023-07-31T06:19:08;3.50;;;3.20;;
11283;SDS011;5698;47.332;11.180;2023-07-31T06:21:35;3.23;;;2.93;;
11283;SDS011;5698;47.332;11.180;2023-07-31T06:24:03;3.20;;;2.70;;
11283;SDS011;5698;47.332;11.180;2023-07-31T06:26:30;3.27;;;2.90;;
11283;SDS011;5698;47.332;11.180;2023-07-31T06:28:57;3.53;;;3.13;;
11283;SDS011;5698;47.332;11.180;2023-07-31T06:31:24;4.00;;;3.43;;
11283;SDS011;5698;47.332;11.180;2023-07-31T06:33:52;4.30;;;3.70;;
11283;SDS011;5698;47.332;11.180;2023-07-31T06:36:20;5.80;;;3.53;;
11283;SDS011;5698;47.332;11.180;2023-07-31T06:38:47;4.20;;;3.10;;
11283;SDS011;5698;47.332;11.180;2023-07-31T06:41:14;4.27;;;3.03;;
11283;SDS011;5698;47.332;11.180;2023-07-31T06:43:41;3.27;;;2.97;;
11283;SDS011;5698;47.332;11.180;2023-07-31T06:46:08;4.67;;;4.13;;
11283;SDS011;5698;47.332;11.180;2023-07-31T06:48:36;3.60;;;3.30;;
11283;SDS011;5698;47.332;11.180;2023-07-31T06:51:03;5.10;;;3.57;;
11283;SDS011;5698;47.332;11.180;2023-07-31T06:53:31;4.73;;;3.73;;
11283;SDS011;5698;47.332;11.180;2023-07-31T06:55:58;3.37;;;3.07;;
11283;SDS011;5698;47.332;11.180;2023-07-31T06:58:25;4.10;;;3.27;;
11283;SDS011;5698;47.332;11.180;2023-07-31T07:00:52;4.13;;;3.30;;
11283;SDS011;5698;47.332;11.180;2023-07-31T07:03:19;2.80;;;2.60;;
11283;SDS011;5698;47.332;11.180;2023-07-31T07:05:46;3.57;;;3.20;;
11283;SDS011;5698;47.332;11.180;2023-07-31T07:08:13;3.73;;;2.90;;
11283;SDS011;5698;47.332;11.180;2023-07-31T07:10:41;3.43;;;3.13;;
11283;SDS011;5698;47.332;11.180;2023-07-31T07:13:08;3.80;;;3.37;;
11283;SDS011;5698;47.332;11.180;2023-07-31T07:15:35;4.83;;;3.20;;
11283;SDS011;5698;47.332;11.180;2023-07-31T07:18:02;4.00;;;3.00;;
11283;SDS011;5698;47.332;11.180;2023-07-31T07:20:29;5.03;;;3.17;;
11283;SDS011;5698;47.332;11.180;2023-07-31T07:22:56;4.57;;;3.53;;
11283;SDS011;5698;47.332;11.180;2023-07-31T07:25:23;3.83;;;3.00;;
11283;SDS011;5698;47.332;11.180;2023-07-31T07:27:52;4.50;;;3.10;;
11283;SDS011;5698;47.332;11.180;2023-07-31T07:30:19;3.23;;;2.90;;
11283;SDS011;5698;47.332;11.180;2023-07-31T07:32:46;4.40;;;3.30;;
11283;SDS011;5698;47.332;11.180;2023-07-31T07:35:13;3.47;;;3.17;;
11283;SDS011;5698;47.332;11.180;2023-07-31T07:37:40;7.13;;;3.17;;
11283;SDS011;5698;47.332;11.180;2023-07-31T07:40:07;3.20;;;2.83;;
11283;SDS011;5698;47.332;11.180;2023-07-31T07:42:35;3.50;;;3.17;;
11283;SDS011;5698;47.332;11.180;2023-07-31T07:45:03;4.07;;;3.00;;
11283;SDS011;5698;47.332;11.180;2023-07-31T07:47:31;3.60;;;3.30;;
11283;SDS011;5698;47.332;11.180;2023-07-31T07:49:58;3.70;;;3.40;;
11283;SDS011;5698;47.332;11.180;2023-07-31T07:52:25;3.00;;;2.70;;
11283;SDS011;5698;47.332;11.180;2023-07-31T07:54:52;3.87;;;2.87;;
11283;SDS011;5698;47.332;11.180;2023-07-31T07:57:19;3.90;;;2.70;;
11283;SDS011;5698;47.332;11.180;2023-07-31T07:59:46;3.60;;;3.30;;
11283;SDS011;5698;47.332;11.180;2023-07-31T08:02:14;3.30;;;3.00;;
11283;SDS011;5698;47.332;11.180;2023-07-31T08:04:41;3.03;;;2.80;;
11283;SDS011;5698;47.332;11.180;2023-07-31T08:07:10;3.83;;;2.90;;
11283;SDS011;5698;47.332;11.180;2023-07-31T08:09:37;3.30;;;2.97;;
11283;SDS011;5698;47.332;11.180;2023-07-31T08:12:04;3.27;;;2.80;;
11283;SDS011;5698;47.332;11.180;2023-07-31T08:14:32;3.70;;;2.90;;
11283;SDS011;5698;47.332;11.180;2023-07-31T08:16:59;3.10;;;2.63;;
11283;SDS011;5698;47.332;11.180;2023-07-31T08:19:28;3.43;;;2.50;;
11283;SDS011;5698;47.332;11.180;2023-07-31T08:21:55;2.83;;;2.60;;
11283;SDS011;5698;47.332;11.180;2023-07-31T08:24:22;3.53;;;2.97;;
11283;SDS011;5698;47.332;11.180;2023-07-31T08:26:49;3.20;;;2.90;;
11283;SDS011;5698;47.332;11.180;2023-07-31T08:29:16;2.57;;;2.37;;
11283;SDS011;5698;47.332;11.180;2023-07-31T08:31:43;2.83;;;2.60;;
11283;SDS011;5698;47.332;11.180;2023-07-31T08:34:10;2.50;;;2.30;;
11283;SDS011;5698;47.332;11.180;2023-07-31T08:36:38;2.70;;;2.50;;
11283;SDS011;5698;47.332;11.180;2023-07-31T08:39:05;2.47;;;2.27;;
11283;SDS011;5698;47.332;11.180;2023-07-31T08:41:36;2.83;;;2.57;;
11283;SDS011;5698;47.332;11.180;2023-07-31T08:44:03;2.50;;;2.23;;
11283;SDS011;5698;47.332;11.180;2023-07-31T08:46:31;3.93;;;2.70;;
11283;SDS011;5698;47.332;11.180;2023-07-31T08:49:00;2.67;;;2.40;;
11283;SDS011;5698;47.332;11.180;2023-07-31T08:51:30;2.80;;;2.50;;
11283;SDS011;5698;47.332;11.180;2023-07-31T08:53:58;2.83;;;2.33;;
11283;SDS011;5698;47.332;11.180;2023-07-31T08:56:25;3.00;;;2.57;;
11283;SDS011;5698;47.332;11.180;2023-07-31T08:58:53;2.97;;;2.70;;
11283;SDS011;5698;47.332;11.180;2023-07-31T09:01:21;3.10;;;2.80;;
11283;SDS011;5698;47.332;11.180;2023-07-31T09:03:49;3.10;;;2.40;;
11283;SDS011;5698;47.332;11.180;2023-07-31T09:06:18;2.87;;;2.37;;
11283;SDS011;5698;47.332;11.180;2023-07-31T09:08:47;2.77;;;2.33;;
11283;SDS011;5698;47.332;11.180;2023-07-31T09:11:15;4.03;;;2.40;;
11283;SDS011;5698;47.332;11.180;2023-07-31T09:13:43;2.80;;;2.40;;
11283;SDS011;5698;47.332;11.180;2023-07-31T09:16:11;3.83;;;2.57;;
11283;SDS011;5698;47.332;11.180;2023-07-31T09:18:52;3.83;;;2.30;;
11283;SDS011;5698;47.332;11.180;2023-07-31T09:21:21;2.90;;;2.53;;
11283;SDS011;5698;47.332;11.180;2023-07-31T09:23:49;2.67;;;2.47;;
11283;SDS011;5698;47.332;11.180;2023-07-31T09:26:32;3.23;;;2.90;;
11283;SDS011;5698;47.332;11.180;2023-07-31T09:29:03;3.53;;;2.60;;
11283;SDS011;5698;47.332;11.180;2023-07-31T09:31:33;2.53;;;2.33;;
11283;SDS011;5698;47.332;11.180;2023-07-31T09:34:05;4.33;;;2.50;;
11283;SDS011;5698;47.332;11.180;2023-07-31T09:36:32;2.90;;;2.60;;
11283;SDS011;5698;47.332;11.180;2023-07-31T09:39:05;2.63;;;2.43;;
11283;SDS011;5698;47.332;11.180;2023-07-31T09:41:37;2.17;;;1.97;;
11283;SDS011;5698;47.332;11.180;2023-07-31T09:44:05;2.80;;;2.60;;
11283;SDS011;5698;47.332;11.180;2023-07-31T09:46:33;3.53;;;2.00;;
11283;SDS011;5698;47.332;11.180;2023-07-31T09:49:07;6.30;;;2.20;;
11283;SDS011;5698;47.332;11.180;2023-07-31T09:51:35;2.33;;;2.13;;
11283;SDS011;5698;47.332;11.180;2023-07-31T09:54:08;2.70;;;2.27;;
11283;SDS011;5698;47.332;11.180;2023-07-31T09:56:38;3.47;;;2.13;;
11283;SDS011;5698;47.332;11.180;2023-07-31T09:59:10;2.43;;;2.23;;
11283;SDS011;5698;47.332;11.180;2023-07-31T10:01:38;2.40;;;2.20;;
11283;SDS011;5698;47.332;11.180;2023-07-31T10:04:07;2.50;;;2.30;;
11283;SDS011;5698;47.332;11.180;2023-07-31T10:06:35;2.30;;;2.10;;
11283;SDS011;5698;47.332;11.180;2023-07-31T10:09:03;2.40;;;2.20;;
11283;SDS011;5698;47.332;11.180;2023-07-31T10:11:31;2.43;;;2.20;;
11283;SDS011;5698;47.332;11.180;2023-07-31T10:14:05;2.63;;;2.40;;
11283;SDS011;5698;47.332;11.180;2023-07-31T10:16:37;2.93;;;2.70;;
11283;SDS011;5698;47.332;11.180;2023-07-31T10:19:05;3.00;;;2.67;;
11283;SDS011;5698;47.332;11.180;2023-07-31T10:21:34;3.10;;;2.50;;
11283;SDS011;5698;47.332;11.180;2023-07-31T10:24:03;2.77;;;2.57;;
11283;SDS011;5698;47.332;11.180;2023-07-31T10:26:31;2.67;;;2.47;;
11283;SDS011;5698;47.332;11.180;2023-07-31T10:28:58;2.50;;;2.30;;
11283;SDS011;5698;47.332;11.180;2023-07-31T10:31:27;5.37;;;2.30;;
11283;SDS011;5698;47.332;11.180;2023-07-31T10:33:55;3.63;;;2.80;;
11283;SDS011;5698;47.332;11.180;2023-07-31T10:36:24;3.53;;;2.43;;
11283;SDS011;5698;47.332;11.180;2023-07-31T10:38:52;2.80;;;2.53;;
11283;SDS011;5698;47.332;11.180;2023-07-31T10:41:27;3.40;;;2.03;;
11283;SDS011;5698;47.332;11.180;2023-07-31T10:43:56;3.60;;;2.37;;
11283;SDS011;5698;47.332;11.180;2023-07-31T10:46:24;2.50;;;2.30;;
11283;SDS011;5698;47.332;11.180;2023-07-31T10:48:57;2.97;;;2.77;;
11283;SDS011;5698;47.332;11.180;2023-07-31T10:51:26;3.23;;;2.10;;
11283;SDS011;5698;47.332;11.180;2023-07-31T10:54:10;3.07;;;2.30;;
11283;SDS011;5698;47.332;11.180;2023-07-31T10:56:37;3.13;;;2.10;;
11283;SDS011;5698;47.332;11.180;2023-07-31T10:59:04;2.73;;;2.30;;
11283;SDS011;5698;47.332;11.180;2023-07-31T11:04:25;3.73;;;2.47;;
11283;SDS011;5698;47.332;11.180;2023-07-31T11:06:56;2.60;;;2.40;;
11283;SDS011;5698;47.332;11.180;2023-07-31T11:09:24;2.33;;;1.97;;
11283;SDS011;5698;47.332;11.180;2023-07-31T11:11:54;2.37;;;2.17;;
11283;SDS011;5698;47.332;11.180;2023-07-31T11:14:21;2.33;;;2.13;;
11283;SDS011;5698;47.332;11.180;2023-07-31T11:16:49;2.70;;;2.30;;
11283;SDS011;5698;47.332;11.180;2023-07-31T11:19:21;2.63;;;1.83;;
11283;SDS011;5698;47.332;11.180;2023-07-31T11:21:50;2.47;;;2.23;;
11283;SDS011;5698;47.332;11.180;2023-07-31T11:24:17;2.50;;;2.10;;
11283;SDS011;5698;47.332;11.180;2023-07-31T11:26:48;2.37;;;2.03;;
11283;SDS011;5698;47.332;11.180;2023-07-31T11:29:16;2.60;;;2.30;;
11283;SDS011;5698;47.332;11.180;2023-07-31T11:31:44;2.30;;;2.10;;
11283;SDS011;5698;47.332;11.180;2023-07-31T11:34:14;2.60;;;2.20;;
11283;SDS011;5698;47.332;11.180;2023-07-31T11:36:47;2.33;;;2.13;;
11283;SDS011;5698;47.332;11.180;2023-07-31T11:39:21;4.30;;;2.10;;
11283;SDS011;5698;47.332;11.180;2023-07-31T11:41:48;2.30;;;2.10;;
11283;SDS011;5698;47.332;11.180;2023-07-31T11:44:15;2.53;;;2.17;;
11283;SDS011;5698;47.332;11.180;2023-07-31T11:46:42;2.73;;;2.53;;
11283;SDS011;5698;47.332;11.180;2023-07-31T11:49:09;2.50;;;2.30;;
11283;SDS011;5698;47.332;11.180;2023-07-31T11:51:37;2.23;;;2.03;;
11283;SDS011;5698;47.332;11.180;2023-07-31T11:54:05;2.43;;;2.23;;
11283;SDS011;5698;47.332;11.180;2023-07-31T11:56:33;3.30;;;2.60;;
11283;SDS011;5698;47.332;11.180;2023-07-31T11:59:00;3.03;;;1.97;;
11283;SDS011;5698;47.332;11.180;2023-07-31T12:01:30;1.80;;;1.70;;
11283;SDS011;5698;47.332;11.180;2023-07-31T12:03:58;3.23;;;2.40;;
11283;SDS011;5698;47.332;11.180;2023-07-31T12:06:32;2.63;;;2.23;;
11283;SDS011;5698;47.332;11.180;2023-07-31T12:09:00;3.67;;;2.33;;
11283;SDS011;5698;47.332;11.180;2023-07-31T12:11:30;3.00;;;2.27;;
11283;SDS011;5698;47.332;11.180;2023-07-31T12:13:57;6.50;;;2.90;;
11283;SDS011;5698;47.332;11.180;2023-07-31T12:16:25;3.97;;;2.60;;
11283;SDS011;5698;47.332;11.180;2023-07-31T12:18:53;2.70;;;2.50;;
11283;SDS011;5698;47.332;11.180;2023-07-31T12:21:20;2.30;;;2.10;;
11283;SDS011;5698;47.332;11.180;2023-07-31T12:23:47;2.30;;;2.00;;
11283;SDS011;5698;47.332;11.180;2023-07-31T12:26:15;3.10;;;2.40;;
11283;SDS011;5698;47.332;11.180;2023-07-31T12:28:44;3.00;;;2.53;;
11283;SDS011;5698;47.332;11.180;2023-07-31T12:31:13;2.40;;;2.20;;
11283;SDS011;5698;47.332;11.180;2023-07-31T12:33:42;2.23;;;2.03;;
11283;SDS011;5698;47.332;11.180;2023-07-31T12:36:10;2.37;;;1.97;;
11283;SDS011;5698;47.332;11.180;2023-07-31T12:38:38;2.63;;;2.42;;
11283;SDS011;5698;47.332;11.180;2023-07-31T12:41:05;2.30;;;2.10;;
11283;SDS011;5698;47.332;11.180;2023-07-31T12:43:33;2.83;;;2.60;;
11283;SDS011;5698;47.332;11.180;2023-07-31T12:46:01;2.25;;;2.05;;
11283;SDS011;5698;47.332;11.180;2023-07-31T12:48:28;3.08;;;2.30;;
11283;SDS011;5698;47.332;11.180;2023-07-31T12:50:55;2.55;;;2.25;;
11283;SDS011;5698;47.332;11.180;2023-07-31T12:53:22;4.35;;;2.58;;
11283;SDS011;5698;47.332;11.180;2023-07-31T12:55:49;2.83;;;2.20;;
11283;SDS011;5698;47.332;11.180;2023-07-31T12:58:16;2.35;;;2.10;;
11283;SDS011;5698;47.332;11.180;2023-07-31T13:00:43;3.10;;;2.17;;
11283;SDS011;5698;47.332;11.180;2023-07-31T13:03:11;3.53;;;2.47;;
11283;SDS011;5698;47.332;11.180;2023-07-31T13:05:38;2.88;;;2.28;;
11283;SDS011;5698;47.332;11.180;2023-07-31T13:08:05;2.63;;;1.73;;
11283;SDS011;5698;47.332;11.180;2023-07-31T13:10:32;3.58;;;2.10;;
11283;SDS011;5698;47.332;11.180;2023-07-31T13:12:59;2.50;;;2.30;;
11283;SDS011;5698;47.332;11.180;2023-07-31T13:15:26;3.15;;;2.35;;
11283;SDS011;5698;47.332;11.180;2023-07-31T13:17:53;2.58;;;2.20;;
11283;SDS011;5698;47.332;11.180;2023-07-31T13:20:21;2.13;;;2.03;;
11283;SDS011;5698;47.332;11.180;2023-07-31T13:22:48;2.40;;;2.20;;
11283;SDS011;5698;47.332;11.180;2023-07-31T13:25:15;2.30;;;2.10;;
11283;SDS011;5698;47.332;11.180;2023-07-31T13:27:42;2.13;;;1.92;;
11283;SDS011;5698;47.332;11.180;2023-07-31T13:30:09;4.18;;;1.75;;
11283;SDS011;5698;47.332;11.180;2023-07-31T13:32:36;2.25;;;2.00;;
11283;SDS011;5698;47.332;11.180;2023-07-31T13:35:04;3.65;;;2.25;;
11283;SDS011;5698;47.332;11.180;2023-07-31T13:37:33;2.90;;;1.83;;
11283;SDS011;5698;47.332;11.180;2023-07-31T13:39:59;2.85;;;2.17;;
11283;SDS011;5698;47.332;11.180;2023-07-31T13:42:29;2.08;;;1.88;;
11283;SDS011;5698;47.332;11.180;2023-07-31T13:44:56;2.85;;;2.10;;
11283;SDS011;5698;47.332;11.180;2023-07-31T13:47:23;2.15;;;1.90;;
11283;SDS011;5698;47.332;11.180;2023-07-31T13:49:50;2.33;;;1.90;;
11283;SDS011;5698;47.332;11.180;2023-07-31T13:52:17;2.10;;;1.90;;
11283;SDS011;5698;47.332;11.180;2023-07-31T13:54:45;2.00;;;1.90;;
11283;SDS011;5698;47.332;11.180;2023-07-31T13:57:12;3.93;;;2.10;;
11283;SDS011;5698;47.332;11.180;2023-07-31T13:59:39;2.50;;;2.30;;
11283;SDS011;5698;47.332;11.180;2023-07-31T14:02:06;2.20;;;2.00;;
11283;SDS011;5698;47.332;11.180;2023-07-31T14:04:33;2.20;;;1.97;;
11283;SDS011;5698;47.332;11.180;2023-07-31T14:07:00;2.07;;;1.83;;
11283;SDS011;5698;47.332;11.180;2023-07-31T14:09:28;2.53;;;1.87;;
11283;SDS011;5698;47.332;11.180;2023-07-31T14:11:56;2.40;;;2.20;;
11283;SDS011;5698;47.332;11.180;2023-07-31T14:14:23;2.47;;;1.90;;
11283;SDS011;5698;47.332;11.180;2023-07-31T14:16:50;1.87;;;1.70;;
11283;SDS011;5698;47.332;11.180;2023-07-31T14:19:17;2.13;;;1.93;;
11283;SDS011;5698;47.332;11.180;2023-07-31T14:21:44;2.40;;;2.20;;
11283;SDS011;5698;47.332;11.180;2023-07-31T14:24:11;3.40;;;2.23;;
11283;SDS011;5698;47.332;11.180;2023-07-31T14:26:38;2.20;;;2.00;;
11283;SDS011;5698;47.332;11.180;2023-07-31T14:29:06;2.67;;;2.17;;
11283;SDS011;5698;47.332;11.180;2023-07-31T14:31:33;2.10;;;1.90;;
11283;SDS011;5698;47.332;11.180;2023-07-31T14:34:00;3.70;;;1.83;;
11283;SDS011;5698;47.332;11.180;2023-07-31T14:36:27;2.50;;;2.00;;
11283;SDS011;5698;47.332;11.180;2023-07-31T14:38:54;2.30;;;2.10;;
11283;SDS011;5698;47.332;11.180;2023-07-31T14:41:20;3.60;;;2.10;;
11283;SDS011;5698;47.332;11.180;2023-07-31T14:43:47;2.20;;;2.00;;
11283;SDS011;5698;47.332;11.180;2023-07-31T14:46:16;5.23;;;2.07;;
11283;SDS011;5698;47.332;11.180;2023-07-31T14:48:43;2.53;;;2.17;;
11283;SDS011;5698;47.332;11.180;2023-07-31T14:51:09;3.93;;;1.97;;
11283;SDS011;5698;47.332;11.180;2023-07-31T14:53:36;2.20;;;1.90;;
11283;SDS011;5698;47.332;11.180;2023-07-31T14:56:03;2.13;;;1.90;;